Time;durP1;ratioP1;P1;durP2;ratioP2;P2;SDS_P1;SDS_P2;PMS_P1;PMS_P2;Temp;Humidity;BMP_temperature;BMP_pressure;BME280_temperature;BME280_humidity;BME280_pressure;Samples;Min_cycle;Max_cycle;Signal;HPM_P1;HPM_P2
2021/11/17 02:25:48;;;;;;;32.17;4.47;;;8.90;99.90;;;;;;4917500;29;20127;-91
2021/11/17 02:28:21;;;;;;;24.58;3.40;;;8.90;99.90;;;;;;4825013;29;20313;-91
2021/11/17 02:31:07;;;;;;;30.80;4.53;;;8.90;99.90;;;;;;4825003;29;20034;-91
2021/11/17 02:34:02;;;;;;;23.95;3.15;;;8.90;99.90;;;;;;4824803;29;20030;-92
2021/11/17 02:36:59;;;;;;;28.40;3.47;;;8.90;99.90;;;;;;4809887;29;20041;-91
2021/11/17 02:40:01;;;;;;;32.25;3.50;;;8.90;99.90;;;;;;4821221;29;20066;-91
2021/11/17 02:43:08;;;;;;;22.98;3.47;;;8.80;99.90;;;;;;4824656;29;20045;-91
2021/11/17 02:46:00;;;;;;;27.67;3.92;;;8.80;99.90;;;;;;4812951;29;20042;-90
2021/11/17 02:48:37;;;;;;;23.23;3.63;;;8.70;99.90;;;;;;4803855;29;20144;-91
2021/11/17 02:51:15;;;;;;;27.25;3.80;;;8.70;99.90;;;;;;4810074;29;20030;-89
2021/11/17 02:53:54;;;;;;;21.20;3.22;;;8.70;99.90;;;;;;4824364;29;20034;-91
2021/11/17 02:56:32;;;;;;;27.60;3.60;;;8.60;99.90;;;;;;4809468;29;20129;-90
2021/11/17 02:59:16;;;;;;;34.05;4.85;;;8.60;99.90;;;;;;4810259;29;20437;-90
2021/11/17 03:01:42;;;;;;;30.60;3.80;;;8.50;99.90;;;;;;4834986;29;20202;-90
2021/11/17 03:04:49;;;;;;;34.95;4.03;;;8.50;99.90;;;;;;4853840;29;20119;-90
2021/11/17 03:07:33;;;;;;;25.70;3.47;;;8.50;99.90;;;;;;4934161;29;20024;-90
2021/11/17 03:10:38;;;;;;;28.90;4.10;;;8.50;99.90;;;;;;4918243;29;20024;-90
2021/11/17 03:13:03;;;;;;;28.70;3.78;;;8.50;99.90;;;;;;4947253;28;20036;-91
2021/11/17 03:15:45;;;;;;;23.42;3.40;;;8.50;99.90;;;;;;4918022;29;20055;-90
2021/11/17 03:18:22;;;;;;;35.08;4.55;;;8.40;99.90;;;;;;4933526;29;20066;-92
2021/11/17 03:21:30;;;;;;;32.00;4.75;;;8.40;99.90;;;;;;4917877;29;20040;-90
2021/11/17 03:24:10;;;;;;;9.77;2.13;;;8.40;99.90;;;;;;4917541;29;20040;-90
2021/11/17 03:27:18;;;;;;;20.77;2.85;;;8.40;99.90;;;;;;4917925;29;20031;-91
2021/11/17 03:30:08;;;;;;;17.42;2.85;;;8.40;99.90;;;;;;4900948;29;20119;-91
2021/11/17 03:32:43;;;;;;;12.73;2.22;;;8.40;99.90;;;;;;4901399;29;20120;-91
2021/11/17 03:35:24;;;;;;;17.48;2.25;;;8.30;99.90;;;;;;4901847;29;20036;-89
2021/11/17 03:37:59;;;;;;;26.02;2.65;;;8.30;99.90;;;;;;4907411;29;20039;-90
2021/11/17 03:40:46;;;;;;;19.60;2.72;;;8.20;99.90;;;;;;4906398;29;20414;-89
2021/11/17 03:43:33;;;;;;;17.92;2.63;;;8.20;99.90;;;;;;4905438;29;20030;-90
2021/11/17 03:46:11;;;;;;;19.63;2.83;;;8.10;99.90;;;;;;4903502;29;20067;-90
2021/11/17 03:48:39;;;;;;;26.17;2.42;;;8.10;99.90;;;;;;4902256;29;20028;-90
2021/11/17 03:51:33;;;;;;;21.42;3.20;;;8.00;99.90;;;;;;4901759;29;20032;-90
2021/11/17 03:54:20;;;;;;;24.33;2.60;;;8.00;99.90;;;;;;4901532;29;20048;-90
2021/11/17 03:57:13;;;;;;;27.55;3.08;;;7.90;99.90;;;;;;4917266;29;20032;-91
2021/11/17 04:00:00;;;;;;;20.05;4.10;;;7.90;99.90;;;;;;4900849;29;20940;-89
2021/11/17 04:02:51;;;;;;;23.60;2.85;;;7.90;99.90;;;;;;4900775;29;20036;-90
2021/11/17 04:05:16;;;;;;;17.65;2.72;;;7.80;99.90;;;;;;4898995;29;20029;-90
2021/11/17 04:07:48;;;;;;;27.00;3.15;;;7.80;99.90;;;;;;4916973;29;20043;-89
2021/11/17 04:10:40;;;;;;;18.67;2.88;;;7.80;99.90;;;;;;4948898;28;20056;-91
2021/11/17 04:13:25;;;;;;;18.48;2.40;;;7.80;99.90;;;;;;4916042;29;20110;-90
2021/11/17 04:16:09;;;;;;;19.52;2.75;;;7.80;99.90;;;;;;4899922;29;20034;-91
2021/11/17 04:18:56;;;;;;;19.33;2.55;;;7.80;99.90;;;;;;4899882;29;20056;-91
2021/11/17 04:21:43;;;;;;;19.67;3.60;;;7.70;99.90;;;;;;4900264;29;20043;-92
2021/11/17 04:24:08;;;;;;;19.60;2.20;;;7.70;99.90;;;;;;4900153;29;20044;-89
2021/11/17 04:27:18;;;;;;;17.05;2.72;;;7.70;99.90;;;;;;4899963;29;20040;-90
2021/11/17 04:29:59;;;;;;;12.00;1.85;;;7.70;99.90;;;;;;4822977;29;20023;-90
2021/11/17 04:32:56;;;;;;;17.95;3.45;;;7.60;99.90;;;;;;4809194;29;20340;-89
2021/11/17 04:35:55;;;;;;;12.85;2.20;;;7.70;99.90;;;;;;4809211;29;20038;-89
2021/11/17 04:38:27;;;;;;;16.27;2.10;;;7.60;99.90;;;;;;4823532;29;20516;-89
2021/11/17 04:40:55;;;;;;;9.32;2.10;;;7.60;99.90;;;;;;4807946;29;20031;-90
2021/11/17 04:43:56;;;;;;;15.52;3.65;;;7.60;99.90;;;;;;4822649;29;20073;-91
2021/11/17 04:46:40;;;;;;;9.07;1.88;;;7.60;99.90;;;;;;4820273;29;20128;-91
2021/11/17 04:49:20;;;;;;;17.13;2.50;;;7.60;99.90;;;;;;4824103;29;20026;-91
2021/11/17 04:51:49;;;;;;;13.00;1.63;;;7.60;99.90;;;;;;4841088;29;20038;-91
2021/11/17 04:54:30;;;;;;;15.85;2.15;;;7.60;99.90;;;;;;4840675;29;20118;-90
2021/11/17 04:57:23;;;;;;;16.77;2.78;;;7.60;99.90;;;;;;4825696;29;20042;-90
2021/11/17 05:00:15;;;;;;;26.02;2.45;;;7.60;99.90;;;;;;4841102;29;20074;-91
2021/11/17 05:02:47;;;;;;;14.38;2.38;;;7.60;99.90;;;;;;4865913;29;20037;-91
2021/11/17 05:05:37;;;;;;;21.45;3.50;;;7.60;99.90;;;;;;4932128;29;20485;-89
2021/11/17 05:08:15;;;;;;;13.05;1.90;;;7.60;99.90;;;;;;4916412;29;20039;-89
2021/11/17 05:10:58;;;;;;;24.40;2.63;;;7.60;99.90;;;;;;4931914;29;20092;-91
2021/11/17 05:13:50;;;;;;;19.95;2.33;;;7.60;99.90;;;;;;4916389;29;20032;-92
2021/11/17 05:16:21;;;;;;;20.27;3.03;;;7.60;99.90;;;;;;4929487;29;20062;-91
2021/11/17 05:19:02;;;;;;;16.65;3.20;;;7.60;99.90;;;;;;4916440;29;20207;-90
2021/11/17 05:21:43;;;;;;;;;;;7.60;99.90;;;;;;4916794;29;20123;-90
2021/11/17 05:24:21;;;;;;;15.88;2.60;;;7.50;99.90;;;;;;4932228;29;19927;-90
2021/11/17 05:26:49;;;;;;;16.95;2.28;;;7.50;99.90;;;;;;4916110;29;20036;-89
2021/11/17 05:29:48;;;;;;;16.02;2.60;;;7.50;99.90;;;;;;4916164;29;20031;-90
2021/11/17 05:32:41;;;;;;;26.23;4.28;;;7.40;99.90;;;;;;4945469;29;20418;-90
2021/11/17 05:35:31;;;;;;;22.88;3.65;;;7.50;99.90;;;;;;4931819;29;20024;-89
2021/11/17 05:38:36;;;;;;;15.27;2.27;;;7.50;99.90;;;;;;4915983;29;20032;-90
2021/11/17 05:41:29;;;;;;;15.50;2.60;;;7.50;99.90;;;;;;4912985;29;20486;-92
2021/11/17 05:44:13;;;;;;;18.35;2.65;;;7.60;99.90;;;;;;4914142;29;20091;-91
2021/11/17 05:47:07;;;;;;;14.15;2.65;;;7.60;99.90;;;;;;4916129;29;20040;-90
2021/11/17 05:50:06;;;;;;;19.42;2.45;;;7.60;99.90;;;;;;4914647;29;20087;-90
2021/11/17 05:52:47;;;;;;;14.75;2.63;;;7.60;99.90;;;;;;4946483;29;20025;-90
2021/11/17 05:55:45;;;;;;;20.63;2.60;;;7.60;99.90;;;;;;4915724;29;20025;-90
2021/11/17 05:58:32;;;;;;;22.80;2.50;;;7.60;99.90;;;;;;4913474;29;20054;-90
2021/11/17 06:01:29;;;;;;;14.25;2.55;;;7.60;99.90;;;;;;4947555;29;20095;-89
2021/11/17 06:04:05;;;;;;;17.45;3.58;;;7.50;99.90;;;;;;4921138;29;20044;-89
2021/11/17 06:06:36;;;;;;;12.32;2.10;;;7.60;99.90;;;;;;4915712;29;20031;-91
2021/11/17 06:09:02;;;;;;;18.73;3.08;;;7.50;99.90;;;;;;4915584;29;20020;-91
2021/11/17 06:11:34;;;;;;;16.15;2.08;;;7.50;99.90;;;;;;4915617;29;20028;-90
2021/11/17 06:14:02;;;;;;;10.90;2.10;;;7.50;99.90;;;;;;4949639;28;20040;-89
2021/11/17 06:16:29;;;;;;;21.27;2.42;;;7.50;99.90;;;;;;4934819;29;20501;-91
2021/11/17 06:18:56;;;;;;;23.65;2.88;;;7.50;99.90;;;;;;4934849;29;20052;-90
2021/11/17 06:21:22;;;;;;;24.92;2.85;;;7.50;99.90;;;;;;4935062;29;20028;-90
2021/11/17 06:23:54;;;;;;;19.05;2.88;;;7.50;99.90;;;;;;4935593;29;20084;-90
2021/11/17 06:26:23;;;;;;;22.88;2.85;;;7.50;99.90;;;;;;4938646;29;20024;-91
2021/11/17 06:28:55;;;;;;;18.45;3.25;;;7.50;99.90;;;;;;4960296;28;20567;-91
2021/11/17 06:31:23;;;;;;;24.38;3.45;;;7.60;99.90;;;;;;4943172;29;20029;-91
2021/11/17 06:33:49;;;;;;;16.88;2.55;;;7.60;99.90;;;;;;4940639;29;20036;-92
2021/11/17 06:36:16;;;;;;;27.95;3.28;;;7.50;99.90;;;;;;4936624;29;20027;-91
2021/11/17 06:38:43;;;;;;;22.23;2.80;;;7.50;99.90;;;;;;4919510;29;20402;-91
2021/11/17 06:41:09;;;;;;;22.00;2.70;;;7.50;99.90;;;;;;4918664;29;20020;-91
2021/11/17 06:43:34;;;;;;;23.55;3.75;;;7.50;99.90;;;;;;4919222;29;20039;-92
2021/11/17 06:46:00;;;;;;;20.90;2.28;;;7.50;99.90;;;;;;4934543;29;20471;-91
2021/11/17 06:48:30;;;;;;;26.67;4.03;;;7.50;99.90;;;;;;4918178;29;20071;-91
2021/11/17 06:50:57;;;;;;;23.92;2.90;;;7.40;99.90;;;;;;4918474;29;20024;-91
2021/11/17 06:53:25;;;;;;;19.92;3.17;;;7.40;99.90;;;;;;4931614;29;20055;-92
2021/11/17 06:55:52;;;;;;;21.75;3.63;;;7.40;99.90;;;;;;4918561;29;20526;-92
2021/11/17 06:58:19;;;;;;;23.65;2.97;;;7.40;99.90;;;;;;4933973;29;20040;-92
2021/11/17 07:00:47;;;;;;;22.55;3.22;;;7.40;99.90;;;;;;4949788;28;20036;-92
2021/11/17 07:03:13;;;;;;;27.50;4.47;;;7.40;99.90;;;;;;4917955;29;20035;-92
2021/11/17 07:05:39;;;;;;;17.02;3.00;;;7.40;99.90;;;;;;4933428;29;20619;-91
2021/11/17 07:08:06;;;;;;;31.38;3.83;;;7.40;99.90;;;;;;4933457;29;20039;-90
2021/11/17 07:10:35;;;;;;;25.90;3.10;;;7.40;99.90;;;;;;4917420;29;20040;-92
2021/11/17 07:13:02;;;;;;;20.67;2.97;;;7.30;99.90;;;;;;4933001;29;20024;-90
2021/11/17 07:15:30;;;;;;;26.38;4.22;;;7.30;99.90;;;;;;4933411;29;20055;-91
2021/11/17 07:17:56;;;;;;;25.60;4.07;;;7.30;99.90;;;;;;4933055;29;20073;-91
2021/11/17 07:20:23;;;;;;;20.98;3.13;;;7.30;99.90;;;;;;4918050;29;20031;-91
2021/11/17 07:22:49;;;;;;;22.20;3.60;;;7.30;99.90;;;;;;4917940;29;20546;-91
2021/11/17 07:25:18;;;;;;;27.02;3.22;;;7.30;99.90;;;;;;4917613;29;20032;-91
2021/11/17 07:27:44;;;;;;;26.98;4.30;;;7.30;99.90;;;;;;4917870;29;20028;-90
2021/11/17 07:30:14;;;;;;;26.58;3.75;;;7.30;99.90;;;;;;4916771;29;20039;-91
2021/11/17 07:32:39;;;;;;;32.33;4.07;;;7.30;99.90;;;;;;4932992;29;20118;-92
2021/11/17 07:35:06;;;;;;;29.88;4.00;;;7.30;99.90;;;;;;4933328;29;20024;-91
2021/11/17 07:37:32;;;;;;;20.85;3.03;;;7.30;99.90;;;;;;4917344;29;20097;-91
2021/11/17 07:39:58;;;;;;;17.50;3.03;;;7.30;99.90;;;;;;4918291;29;20492;-91
2021/11/17 07:42:24;;;;;;;19.15;3.80;;;7.40;99.90;;;;;;4917633;29;20112;-90
2021/11/17 07:44:51;;;;;;;24.40;3.33;;;7.30;99.90;;;;;;4949266;29;20123;-90
2021/11/17 07:47:18;;;;;;;28.33;4.25;;;7.40;99.90;;;;;;4917076;29;20087;-91
2021/11/17 07:49:43;;;;;;;28.02;3.92;;;7.40;99.90;;;;;;4933292;29;20055;-91
2021/11/17 07:52:09;;;;;;;22.98;3.35;;;7.50;99.90;;;;;;4932275;29;20418;-91
2021/11/17 07:54:35;;;;;;;27.02;3.58;;;7.50;99.90;;;;;;4933327;29;20071;-91
2021/11/17 07:57:03;;;;;;;31.20;3.55;;;7.50;99.90;;;;;;4917275;29;20478;-90
2021/11/17 07:59:30;;;;;;;26.23;3.78;;;7.50;99.90;;;;;;4932922;29;20032;-92
2021/11/17 08:02:01;;;;;;;30.35;5.13;;;7.50;99.90;;;;;;4917362;29;20028;-91
2021/11/17 08:04:34;;;;;;;26.17;3.75;;;7.50;99.90;;;;;;4916908;29;20024;-91
2021/11/17 08:07:03;;;;;;;33.65;5.60;;;7.60;99.90;;;;;;4932480;29;20546;-92
2021/11/17 08:09:30;;;;;;;22.90;3.28;;;7.60;99.90;;;;;;4932488;29;20136;-93
2021/11/17 08:11:56;;;;;;;20.75;4.32;;;7.60;99.90;;;;;;4932552;29;20087;-92
2021/11/17 08:14:22;;;;;;;28.55;3.90;;;7.60;99.90;;;;;;4932282;29;20418;-93
2021/11/17 08:16:47;;;;;;;23.90;3.72;;;7.60;99.90;;;;;;4947963;29;20028;-91
2021/11/17 08:19:13;;;;;;;28.83;3.33;;;7.70;99.90;;;;;;4932311;29;20036;-93
2021/11/17 08:21:39;;;;;;;19.23;4.65;;;7.70;99.90;;;;;;4932581;29;20016;-91
2021/11/17 08:24:05;;;;;;;21.23;4.15;;;7.70;99.90;;;;;;4934180;28;20036;-94
2021/11/17 08:26:31;;;;;;;32.20;3.45;;;7.70;99.90;;;;;;4932314;29;20035;-90
2021/11/17 08:28:57;;;;;;;23.00;3.30;;;7.70;99.90;;;;;;4932111;29;20024;-92
2021/11/17 08:31:24;;;;;;;20.95;3.30;;;7.80;99.90;;;;;;4932051;29;20020;-90
2021/11/17 08:33:51;;;;;;;23.52;3.67;;;7.80;99.90;;;;;;4915903;29;20032;-91
2021/11/17 08:36:17;;;;;;;18.88;3.72;;;7.80;99.90;;;;;;4915964;29;20170;-91
2021/11/17 08:38:43;;;;;;;30.70;4.38;;;7.80;99.90;;;;;;4916529;29;20131;-92
2021/11/17 08:41:11;;;;;;;29.88;4.25;;;7.80;99.90;;;;;;4916518;29;20035;-94
2021/11/17 08:43:39;;;;;;;33.00;5.57;;;7.90;99.90;;;;;;4916081;29;20060;-92
2021/11/17 08:46:05;;;;;;;22.58;4.60;;;7.90;99.90;;;;;;4916166;29;20533;-93
2021/11/17 08:48:33;;;;;;;39.70;4.95;;;7.90;99.90;;;;;;4931439;29;20036;-93
2021/11/17 08:51:01;;;;;;;28.77;4.80;;;7.90;99.90;;;;;;4932310;29;20028;-91
2021/11/17 08:53:31;;;;;;;23.83;5.00;;;7.90;99.90;;;;;;4932258;29;20556;-92
2021/11/17 08:55:58;;;;;;;27.58;4.38;;;7.90;99.90;;;;;;4932450;29;20123;-92
2021/11/17 08:58:25;;;;;;;19.30;3.40;;;7.90;99.90;;;;;;4910210;29;20039;-92
2021/11/17 09:00:52;;;;;;;25.08;4.07;;;7.90;99.90;;;;;;4930834;29;20387;-93
2021/11/17 09:03:19;;;;;;;29.60;4.10;;;8.00;99.90;;;;;;4947343;28;20032;-91
2021/11/17 09:05:51;;;;;;;27.23;4.88;;;8.00;99.90;;;;;;4931239;29;20024;-91
2021/11/17 09:08:19;;;;;;;27.13;4.40;;;8.00;99.90;;;;;;4930026;29;20029;-91
2021/11/17 09:10:48;;;;;;;31.80;4.60;;;8.00;99.90;;;;;;4931853;29;20478;-91
2021/11/17 09:13:15;;;;;;;25.42;3.80;;;8.10;99.90;;;;;;4933228;29;20088;-91
2021/11/17 09:15:44;;;;;;;23.55;3.55;;;8.10;99.90;;;;;;4943690;29;20056;-91
2021/11/17 09:18:11;;;;;;;33.95;5.43;;;8.00;99.90;;;;;;4945091;29;20052;-92
2021/11/17 09:20:37;;;;;;;33.35;3.95;;;8.10;99.90;;;;;;4943968;29;20032;-91
2021/11/17 09:23:05;;;;;;;22.80;3.95;;;8.10;99.90;;;;;;4939467;29;20069;-91
2021/11/17 09:25:32;;;;;;;23.73;4.32;;;8.10;99.90;;;;;;4939252;29;20028;-94
2021/11/17 09:27:57;;;;;;;22.80;3.53;;;8.10;99.90;;;;;;4937656;29;20032;-92
2021/11/17 09:30:27;;;;;;;18.73;3.58;;;8.10;99.90;;;;;;4935644;29;20039;-94
2021/11/17 09:32:57;;;;;;;25.55;4.43;;;8.10;99.90;;;;;;4933911;29;20024;-92
2021/11/17 09:35:23;;;;;;;21.35;4.13;;;8.10;99.90;;;;;;4934830;29;20020;-93
2021/11/17 09:37:51;;;;;;;33.25;3.75;;;8.20;99.90;;;;;;4951046;28;20035;-94
2021/11/17 09:40:25;;;;;;;23.85;4.00;;;8.20;99.90;;;;;;4918521;29;20112;-94
2021/11/17 09:42:52;;;;;;;24.45;5.50;;;8.20;99.90;;;;;;4917486;29;20062;-93
2021/11/17 09:45:19;;;;;;;26.45;3.75;;;8.30;99.90;;;;;;4917548;29;20064;-93
2021/11/17 09:47:45;;;;;;;32.17;4.45;;;8.30;99.90;;;;;;4931329;29;20084;-93
2021/11/17 09:50:25;;;;;;;24.55;4.03;;;8.40;99.90;;;;;;4935689;29;20024;-94
2021/11/17 09:52:56;;;;;;;29.43;4.90;;;8.40;99.90;;;;;;4949953;29;20470;-92
2021/11/17 09:55:33;;;;;;;22.75;3.95;;;8.40;99.90;;;;;;4920508;29;20021;-92
2021/11/17 09:58:30;;;;;;;28.42;4.40;;;8.40;99.90;;;;;;4917908;29;20040;-93
2021/11/17 10:01:26;;;;;;;22.30;3.45;;;8.40;99.90;;;;;;4946816;28;20099;-92
2021/11/17 10:04:16;;;;;;;27.73;4.68;;;8.50;99.90;;;;;;4933174;29;20131;-93
2021/11/17 10:13:00;;;;;;;31.60;5.32;;;8.60;99.90;;;;;;4917601;29;20036;-93
2021/11/17 10:15:34;;;;;;;26.25;3.80;;;8.60;99.90;;;;;;4912748;29;20036;-93
2021/11/17 10:18:25;;;;;;;28.80;3.83;;;8.70;99.90;;;;;;4934579;29;20052;-91
2021/11/17 10:20:54;;;;;;;32.25;4.18;;;8.70;99.90;;;;;;4947814;28;20124;-92
2021/11/17 10:23:27;;;;;;;24.52;5.07;;;8.80;99.90;;;;;;4916346;29;20028;-91
2021/11/17 10:26:11;;;;;;;34.47;5.32;;;8.80;99.90;;;;;;4932017;29;20111;-92
2021/11/17 10:28:39;;;;;;;26.73;4.38;;;8.80;99.90;;;;;;4934443;29;20020;-92
2021/11/17 10:31:17;;;;;;;25.55;4.40;;;8.80;99.90;;;;;;4917261;29;20123;-93
2021/11/17 10:33:48;;;;;;;23.38;4.50;;;8.90;99.90;;;;;;4918264;29;20477;-93
2021/11/17 10:36:40;;;;;;;22.02;3.83;;;8.90;99.90;;;;;;4948245;28;20533;-93
2021/11/17 10:39:38;;;;;;;27.02;5.15;;;8.90;99.90;;;;;;4948680;28;20071;-91
2021/11/17 10:42:31;;;;;;;20.88;4.20;;;8.90;99.90;;;;;;4916382;29;20052;-93
2021/11/17 10:45:09;;;;;;;30.15;4.10;;;9.00;99.90;;;;;;4933736;29;20039;-93
2021/11/17 10:47:47;;;;;;;25.98;4.22;;;9.00;99.90;;;;;;4916116;29;20033;-93
2021/11/17 10:50:18;;;;;;;22.45;3.80;;;9.00;99.90;;;;;;4947830;29;20024;-91
2021/11/17 10:52:50;;;;;;;25.55;4.40;;;9.10;99.90;;;;;;4917733;29;20054;-92
2021/11/17 10:55:29;;;;;;;34.72;5.70;;;9.10;99.90;;;;;;4914739;29;20076;-92
2021/11/17 10:57:55;;;;;;;20.73;3.53;;;9.10;99.90;;;;;;4933279;29;20494;-92
2021/11/17 11:00:30;;;;;;;22.83;4.30;;;9.20;99.90;;;;;;4932461;29;20032;-91
2021/11/17 11:02:57;;;;;;;24.80;3.97;;;9.40;99.90;;;;;;4933920;29;20118;-93
2021/11/17 11:05:27;;;;;;;20.75;3.15;;;9.70;99.90;;;;;;4916022;29;20194;-91
2021/11/17 11:08:18;;;;;;;17.73;3.78;;;10.30;99.90;;;;;;4933423;29;20025;-95
2021/11/17 11:10:55;;;;;;;21.13;3.92;;;10.80;99.90;;;;;;4931959;29;20032;-92
2021/11/17 11:13:35;;;;;;;25.80;5.43;;;11.00;99.90;;;;;;4947327;29;20051;-95
2021/11/17 11:16:41;;;;;;;31.23;5.90;;;11.00;99.90;;;;;;4930783;29;20494;-94
2021/11/17 11:19:10;;;;;;;24.50;5.47;;;10.90;99.90;;;;;;4924019;29;20183;-95
2021/11/17 11:21:42;;;;;;;29.58;6.80;;;10.60;99.90;;;;;;4916833;29;20030;-93
2021/11/17 11:24:12;;;;;;;15.95;5.18;;;10.50;99.90;;;;;;4916420;29;20028;-93
2021/11/17 11:26:59;;;;;;;24.23;6.23;;;10.40;99.90;;;;;;4932682;29;20047;-93
2021/11/17 11:29:40;;;;;;;27.88;7.13;;;10.30;99.90;;;;;;4913402;29;20364;-92
2021/11/17 11:32:13;;;;;;;31.17;6.43;;;10.20;99.90;;;;;;4914513;29;20027;-93
2021/11/17 11:34:58;;;;;;;26.35;6.90;;;10.10;99.90;;;;;;4934909;29;20028;-93
2021/11/17 11:37:23;;;;;;;25.08;6.00;;;9.90;99.90;;;;;;4917733;29;20043;-93
2021/11/17 11:39:55;;;;;;;23.05;5.00;;;9.80;99.90;;;;;;4916398;29;20032;-94
2021/11/17 11:42:31;;;;;;;27.75;5.65;;;9.80;99.90;;;;;;4932370;29;20024;-95
2021/11/17 11:45:08;;;;;;;24.98;6.10;;;9.80;99.90;;;;;;4946780;29;20024;-93
2021/11/17 11:47:42;;;;;;;29.55;6.78;;;9.70;99.90;;;;;;4914359;29;20035;-94
2021/11/17 11:50:30;;;;;;;22.20;5.93;;;9.70;99.90;;;;;;4915594;29;20032;-94
2021/11/17 11:52:56;;;;;;;20.95;4.50;;;9.70;99.90;;;;;;4945965;29;20032;-93
2021/11/17 11:55:22;;;;;;;38.90;4.95;;;9.70;99.90;;;;;;4916464;29;20016;-93
2021/11/17 11:57:52;;;;;;;35.17;5.50;;;9.80;99.90;;;;;;4932547;29;20024;-93
2021/11/17 12:00:20;;;;;;;26.83;6.15;;;9.70;99.90;;;;;;4917076;29;20036;-94
2021/11/17 12:03:03;;;;;;;25.77;5.95;;;9.80;99.90;;;;;;4946493;28;20020;-93
2021/11/17 12:05:36;;;;;;;25.23;4.90;;;9.90;99.90;;;;;;4949768;28;20024;-95
2021/11/17 12:08:28;;;;;;;20.65;5.20;;;10.20;99.90;;;;;;4946714;29;20024;-96
2021/11/17 12:11:14;;;;;;;25.50;5.07;;;10.50;99.90;;;;;;4961821;28;20058;-95
2021/11/17 12:13:45;;;;;;;26.95;5.45;;;10.70;99.90;;;;;;4918540;29;20104;-94
2021/11/17 12:16:21;;;;;;;26.80;6.15;;;10.80;99.90;;;;;;4942898;29;20016;-93
2021/11/17 12:18:56;;;;;;;27.75;5.55;;;10.80;99.90;;;;;;4938609;29;20071;-94
2021/11/17 12:21:40;;;;;;;36.55;5.53;;;10.80;99.90;;;;;;4922393;29;20024;-92
2021/11/17 12:24:17;;;;;;;27.30;4.40;;;10.80;99.90;;;;;;4916738;29;20673;-94
2021/11/17 12:26:46;;;;;;;34.10;5.40;;;10.90;99.90;;;;;;4914543;29;20097;-95
2021/11/17 12:29:16;;;;;;;27.77;4.80;;;11.00;99.90;;;;;;4932107;29;20107;-94
2021/11/17 12:31:57;;;;;;;23.05;5.07;;;11.10;99.90;;;;;;4917568;29;20035;-94
2021/11/17 12:34:28;;;;;;;28.50;5.35;;;11.30;99.90;;;;;;4917673;29;20072;-94
2021/11/17 12:37:09;;;;;;;30.02;5.32;;;11.30;99.90;;;;;;4917462;29;20036;-93
2021/11/17 12:40:16;;;;;;;31.13;5.30;;;11.20;99.90;;;;;;4916095;29;20040;-92
2021/11/17 12:42:46;;;;;;;31.67;5.45;;;11.00;99.90;;;;;;4906236;29;20051;-95
2021/11/17 12:45:14;;;;;;;28.38;6.10;;;10.90;99.90;;;;;;4916610;29;20509;-92
2021/11/17 12:47:55;;;;;;;33.08;5.93;;;10.80;99.90;;;;;;4916270;29;20055;-93
2021/11/17 12:50:29;;;;;;;35.08;8.30;;;10.70;99.90;;;;;;4932112;29;20144;-95
2021/11/17 12:53:21;;;;;;;26.85;5.55;;;10.60;99.90;;;;;;4917001;29;20040;-94
2021/11/17 12:55:49;;;;;;;22.08;5.00;;;10.50;99.90;;;;;;4916019;29;20083;-93
2021/11/17 12:58:27;;;;;;;27.75;5.47;;;10.50;99.90;;;;;;4916147;29;20028;-91
2021/11/17 13:01:16;;;;;;;29.40;5.68;;;10.40;99.90;;;;;;4916229;29;20030;-94
2021/11/17 13:03:47;;;;;;;26.33;5.55;;;10.40;99.90;;;;;;4946741;29;20032;-93
2021/11/17 13:06:31;;;;;;;35.80;6.28;;;10.40;99.90;;;;;;4915947;29;20020;-93
2021/11/17 13:09:19;;;;;;;31.73;6.75;;;10.50;99.90;;;;;;4945658;28;20103;-94
2021/11/17 13:12:12;;;;;;;24.63;4.80;;;10.70;99.90;;;;;;4915120;29;20078;-93
2021/11/17 13:14:43;;;;;;;26.60;4.00;;;10.80;99.90;;;;;;4915893;29;20051;-95
2021/11/17 13:17:21;;;;;;;25.75;4.05;;;10.80;99.90;;;;;;4946201;29;20036;-91
2021/11/17 13:19:53;;;;;;;31.38;4.68;;;10.80;99.90;;;;;;4915207;29;20040;-93
2021/11/17 13:22:27;;;;;;;26.30;4.45;;;10.80;99.90;;;;;;4914996;29;20024;-94
2021/11/17 13:25:20;;;;;;;19.98;4.05;;;10.70;99.90;;;;;;4934970;29;20024;-91
2021/11/17 13:27:56;;;;;;;25.40;4.75;;;10.70;99.90;;;;;;4918810;29;20083;-92
2021/11/17 13:30:38;;;;;;;27.55;3.78;;;10.60;99.90;;;;;;4917608;29;20024;-92
2021/11/17 13:33:32;;;;;;;36.97;4.28;;;10.50;99.90;;;;;;4919060;29;20047;-93
2021/11/17 13:36:01;;;;;;;28.00;4.07;;;10.40;99.90;;;;;;4919493;29;20064;-93
2021/11/17 13:38:27;;;;;;;30.58;5.75;;;10.30;99.90;;;;;;4935170;29;20036;-91
2021/11/17 13:40:56;;;;;;;26.90;4.05;;;10.20;99.90;;;;;;4917525;29;20087;-92
2021/11/17 13:43:22;;;;;;;28.90;4.65;;;10.20;99.90;;;;;;4919967;29;20028;-92
2021/11/17 13:45:51;;;;;;;26.92;4.50;;;10.20;99.90;;;;;;4935723;29;20036;-92
2021/11/17 13:48:21;;;;;;;27.45;4.55;;;10.20;99.90;;;;;;4935498;29;20058;-94
2021/11/17 13:50:48;;;;;;;24.95;5.18;;;10.20;99.90;;;;;;4935204;29;20466;-93
2021/11/17 13:53:15;;;;;;;21.58;3.63;;;10.20;99.90;;;;;;4932275;29;20039;-93
2021/11/17 13:55:49;;;;;;;32.40;3.78;;;10.20;99.90;;;;;;4935018;29;20020;-92
2021/11/17 13:58:15;;;;;;;24.60;3.40;;;10.20;99.90;;;;;;4932505;29;20016;-91
2021/11/17 14:00:42;;;;;;;26.83;4.40;;;10.10;99.90;;;;;;4950536;28;20032;-92
2021/11/17 14:03:08;;;;;;;30.30;4.70;;;10.10;99.90;;;;;;4919373;29;20052;-92
2021/11/17 14:05:39;;;;;;;24.75;3.90;;;10.00;99.90;;;;;;4919602;29;20111;-93
2021/11/17 14:08:05;;;;;;;35.35;4.00;;;10.00;99.90;;;;;;4923187;29;20029;-93
2021/11/17 14:10:33;;;;;;;33.83;4.88;;;10.00;99.90;;;;;;4920031;29;20147;-93
2021/11/17 14:12:59;;;;;;;29.23;3.50;;;10.10;99.90;;;;;;4917747;29;20028;-92
2021/11/17 14:15:25;;;;;;;24.80;3.30;;;10.20;99.90;;;;;;4918545;29;20056;-92
2021/11/17 14:17:51;;;;;;;19.17;3.03;;;10.20;99.90;;;;;;4918125;29;20433;-93
2021/11/17 14:20:18;;;;;;;22.33;4.30;;;10.30;99.90;;;;;;4939233;29;20119;-92
2021/11/17 14:22:44;;;;;;;29.67;4.25;;;10.40;99.90;;;;;;4926154;29;20036;-93
2021/11/17 14:25:17;;;;;;;21.20;3.83;;;10.50;99.90;;;;;;4943544;29;21288;-94
2021/11/17 14:27:47;;;;;;;30.75;4.40;;;10.50;99.90;;;;;;4926549;29;20032;-93
2021/11/17 14:30:21;;;;;;;29.90;3.53;;;10.60;99.90;;;;;;4922330;29;20060;-93
2021/11/17 14:32:49;;;;;;;23.80;4.05;;;10.60;99.90;;;;;;4925631;29;20029;-92
2021/11/17 14:35:16;;;;;;;34.65;3.95;;;10.50;99.90;;;;;;4929434;29;20027;-91
2021/11/17 14:37:43;;;;;;;23.77;3.90;;;10.40;99.90;;;;;;4921523;29;20116;-94
2021/11/17 14:40:11;;;;;;;25.23;3.08;;;10.40;99.90;;;;;;4932679;29;20024;-92
2021/11/17 14:42:37;;;;;;;21.05;3.00;;;10.40;99.90;;;;;;4950087;28;20028;-93
2021/11/17 14:45:07;;;;;;;23.02;3.85;;;10.30;99.90;;;;;;4928591;29;20055;-94
2021/11/17 14:47:32;;;;;;;34.35;5.40;;;10.30;99.90;;;;;;4946626;28;20170;-92
2021/11/17 14:49:58;;;;;;;21.92;4.25;;;10.30;99.90;;;;;;4947918;29;20122;-94
2021/11/17 14:52:24;;;;;;;39.80;4.72;;;10.20;99.90;;;;;;4948467;29;20024;-94
2021/11/17 14:54:50;;;;;;;26.52;3.97;;;10.20;99.90;;;;;;4947514;29;20024;-94
2021/11/17 14:57:17;;;;;;;33.60;4.25;;;10.20;99.90;;;;;;4932780;29;20385;-93
2021/11/17 14:59:43;;;;;;;30.13;4.72;;;10.10;99.90;;;;;;4930522;29;20125;-93
2021/11/17 15:02:09;;;;;;;35.80;5.65;;;10.10;99.90;;;;;;4932323;29;20031;-92
2021/11/17 15:04:35;;;;;;;24.38;4.82;;;10.00;99.90;;;;;;4939567;29;20024;-92
2021/11/17 15:07:03;;;;;;;33.17;4.50;;;10.00;99.90;;;;;;4939248;29;20027;-93
2021/11/17 15:09:29;;;;;;;26.85;5.55;;;10.00;99.90;;;;;;4941024;29;20024;-93
2021/11/17 15:12:01;;;;;;;28.77;4.30;;;9.90;99.90;;;;;;4946976;29;20031;-92
2021/11/17 15:14:30;;;;;;;29.60;4.43;;;9.90;99.90;;;;;;4943955;29;20096;-92
2021/11/17 15:16:59;;;;;;;32.58;4.43;;;9.90;99.90;;;;;;4959134;28;20032;-93
2021/11/17 15:19:25;;;;;;;33.10;3.58;;;9.90;99.90;;;;;;4932559;29;20044;-92
2021/11/17 15:21:51;;;;;;;19.13;2.70;;;9.80;99.90;;;;;;4926841;29;20028;-93
2021/11/17 15:24:18;;;;;;;19.48;3.50;;;9.90;99.90;;;;;;4950428;28;20047;-93
2021/11/17 15:27:01;;;;;;;19.85;2.85;;;9.80;99.90;;;;;;4940407;29;20027;-91
2021/11/17 15:29:27;;;;;;;25.38;4.20;;;9.80;99.90;;;;;;4927442;29;20028;-93
2021/11/17 15:31:53;;;;;;;36.92;3.83;;;9.80;99.90;;;;;;4944176;28;20115;-92
2021/11/17 15:34:19;;;;;;;27.02;3.72;;;9.80;99.90;;;;;;4939315;29;20047;-93
2021/11/17 15:36:44;;;;;;;21.35;2.80;;;9.80;99.90;;;;;;4944660;29;20039;-93
2021/11/17 15:39:10;;;;;;;23.00;3.60;;;9.80;99.90;;;;;;4941135;28;20118;-94
2021/11/17 15:41:38;;;;;;;29.33;4.18;;;9.70;99.90;;;;;;4939025;29;20059;-92
2021/11/17 15:44:04;;;;;;;21.80;4.10;;;9.70;99.90;;;;;;4927884;29;20035;-93
2021/11/17 15:46:30;;;;;;;31.40;3.55;;;9.70;99.90;;;;;;4937543;29;20034;-92
2021/11/17 15:48:57;;;;;;;31.48;4.15;;;9.70;99.90;;;;;;4942160;29;20572;-92
2021/11/17 15:51:30;;;;;;;31.85;4.28;;;9.70;99.90;;;;;;4925739;29;20023;-93
2021/11/17 15:53:57;;;;;;;17.80;3.00;;;9.60;99.90;;;;;;4941491;29;20032;-91
2021/11/17 15:56:24;;;;;;;31.92;4.60;;;9.70;99.90;;;;;;4925051;29;20134;-93